Terminal Aerodrome Forecast
Issued by NWS

Current Version | Previous Version | Text Only | Print | Product List | Glossary On
Versions: 1 2 3 4 5 6 7 8 9 10 11 12 13 14 15 16 17
221
FTUS43 KGRR 140520
TAFAZO
TAF
KAZO 140520Z 1406/1506 VRB03KT P6SM SCT035
     FM141500 14010KT P6SM SCT150
     FM150200 13012KT 1 1/2SM -SN OVC015=

USA.gov is the U.S. government's official web portal to all federal, state and local government web resources and services.